Tortugas — 9HA4366 — position and weather

sailwx.info

Track history (hours):
 
Tides and Currents Weather Stations Pressure Air Temp Water Temp Dewpoint Dewpoint Depression Visibility Wind Speed Wind Dir Waves Ship Positions

Tortugas

Last reported at 2018-Jul-16 17:18 UTC. Time now 2018-Jul-19 19:30 UTC.
Position N 09°11' W 079°52'.

Length 199 m; draft 10.3 m.

Type: Cargo ship. MMSI: 249757000.

Date/timePositionNaut miles runAvg speedWind from/ knotsBaromVisibWave heightAir tempDewpointWater temp
2018-Jul-16 17:18N 09°11' W 079°52'411.1
2018-Jul-16 16:59N 09°13' W 079°55'3 7.1
2018-Jul-16 16:31N 09°16' W 079°55'1 1.0
2018-Jul-16 16:00N 09°16' W 079°55'0 0.4
2018-Jul-16 15:30N 09°17' W 079°55'0 0.4
2018-Jul-16 15:00N 09°17' W 079°55'1 1.2
2018-Jul-16 14:30N 09°17' W 079°55'2 3.8
2018-Jul-16 14:00N 09°19' W 079°55'2 4.9
2018-Jul-16 13:30N 09°22' W 079°55'2 5.0
2018-Jul-16 13:00N 09°24' W 079°55'3 5.7
2018-Jul-16 12:31N 09°27' W 079°54'2 3.3
2018-Jul-16 12:01N 09°28' W 079°53'0 0.3
2018-Jul-16 11:31N 09°28' W 079°53'1 2.0
2018-Jul-16 11:00N 09°27' W 079°53'0 0.9
2018-Jul-16 10:31N 09°27' W 079°53'1 1.1
2018-Jul-16 10:01N 09°27' W 079°53'4 8.2
2018-Jul-16 09:31N 09°23' W 079°54'1 1.8
2018-Jul-16 08:58N 09°22' W 079°53'0 0.0
2018-Jul-16 08:28N 09°22' W 079°53'0 0.0
2018-Jul-16 07:58N 09°22' W 079°53'0 0.0
2018-Jul-16 07:28N 09°22' W 079°53'0 0.0
2018-Jul-16 06:58N 09°22' W 079°53'0 0.0
2018-Jul-16 06:28N 09°22' W 079°53'0 0.0
2018-Jul-16 05:58N 09°22' W 079°53'0 0.0
2018-Jul-16 05:28N 09°22' W 079°53'0 0.0
2018-Jul-16 04:58N 09°22' W 079°53'0 0.0
2018-Jul-16 04:28N 09°22' W 079°53'0 0.0
2018-Jul-16 03:58N 09°22' W 079°53'0 0.0
2018-Jul-16 03:28N 09°22' W 079°53'0 0.0
2018-Jul-16 02:58N 09°22' W 079°53'0 0.0
2018-Jul-16 02:28N 09°22' W 079°53'0 0.0
2018-Jul-16 01:58N 09°22' W 079°53'0 0.0
2018-Jul-16 01:28N 09°22' W 079°53'0 0.0
2018-Jul-16 00:58N 09°22' W 079°53'0 0.0
2018-Jul-16 00:28N 09°22' W 079°53'0 0.0
2018-Jul-15 23:58N 09°22' W 079°53'0 0.1
2018-Jul-15 23:30N 09°22' W 079°53'0 0.8
2018-Jul-15 23:00N 09°22' W 079°54'3 5.5
2018-Jul-15 22:30N 09°25' W 079°53'0 0.8
2018-Jul-15 22:00N 09°25' W 079°54'5 8.6
2018-Jul-15 21:24N 09°30' W 079°53'4 9.7
2018-Jul-15 21:00N 09°34' W 079°52'  
Track history (hours):
 
Tides and Currents Weather Stations Pressure Air Temp Water Temp Dewpoint Dewpoint Depression Visibility Wind Speed Wind Dir Waves Ship Positions

Tortugas

Last reported at 2018-Jul-16 17:18 UTC. Time now 2018-Jul-19 19:30 UTC.
Position N 09°11' W 079°52'.

Length 199 m; draft 10.3 m.

Type: Cargo ship. MMSI: 249757000.

Date/timePositionNaut miles runAvg speedWind from/ knotsBaromVisibWave heightAir tempDewpointWater temp
2018-Jul-16 17:18N 09°11' W 079°52'411.1
2018-Jul-16 16:59N 09°13' W 079°55'3 7.1
2018-Jul-16 16:31N 09°16' W 079°55'1 1.0
2018-Jul-16 16:00N 09°16' W 079°55'0 0.4
2018-Jul-16 15:30N 09°17' W 079°55'0 0.4
2018-Jul-16 15:00N 09°17' W 079°55'1 1.2
2018-Jul-16 14:30N 09°17' W 079°55'2 3.8
2018-Jul-16 14:00N 09°19' W 079°55'2 4.9
2018-Jul-16 13:30N 09°22' W 079°55'2 5.0
2018-Jul-16 13:00N 09°24' W 079°55'3 5.7
2018-Jul-16 12:31N 09°27' W 079°54'2 3.3
2018-Jul-16 12:01N 09°28' W 079°53'0 0.3
2018-Jul-16 11:31N 09°28' W 079°53'1 2.0
2018-Jul-16 11:00N 09°27' W 079°53'0 0.9
2018-Jul-16 10:31N 09°27' W 079°53'1 1.1
2018-Jul-16 10:01N 09°27' W 079°53'4 8.2
2018-Jul-16 09:31N 09°23' W 079°54'1 1.8
2018-Jul-16 08:58N 09°22' W 079°53'0 0.0
2018-Jul-16 08:28N 09°22' W 079°53'0 0.0
2018-Jul-16 07:58N 09°22' W 079°53'0 0.0
2018-Jul-16 07:28N 09°22' W 079°53'0 0.0
2018-Jul-16 06:58N 09°22' W 079°53'0 0.0
2018-Jul-16 06:28N 09°22' W 079°53'0 0.0
2018-Jul-16 05:58N 09°22' W 079°53'0 0.0
2018-Jul-16 05:28N 09°22' W 079°53'0 0.0
2018-Jul-16 04:58N 09°22' W 079°53'0 0.0
2018-Jul-16 04:28N 09°22' W 079°53'0 0.0
2018-Jul-16 03:58N 09°22' W 079°53'0 0.0
2018-Jul-16 03:28N 09°22' W 079°53'0 0.0
2018-Jul-16 02:58N 09°22' W 079°53'0 0.0
2018-Jul-16 02:28N 09°22' W 079°53'0 0.0
2018-Jul-16 01:58N 09°22' W 079°53'0 0.0
2018-Jul-16 01:28N 09°22' W 079°53'0 0.0
2018-Jul-16 00:58N 09°22' W 079°53'0 0.0
2018-Jul-16 00:28N 09°22' W 079°53'0 0.0
2018-Jul-15 23:58N 09°22' W 079°53'0 0.1
2018-Jul-15 23:30N 09°22' W 079°53'0 0.8
2018-Jul-15 23:00N 09°22' W 079°54'3 5.5
2018-Jul-15 22:30N 09°25' W 079°53'0 0.8
2018-Jul-15 22:00N 09°25' W 079°54'5 8.6
2018-Jul-15 21:24N 09°30' W 079°53'4 9.7
2018-Jul-15 21:00N 09°34' W 079°52'  

Dump ship's entire track history